Meath Environmental Platform

Observations

Time Sensor AQI SAQ Temp °C Hum % Pres Pa CO μg/m³ H₂S μg/m³ NO μg/m³ NO₂ μg/m³ O₃ μg/m³ SO₂ μg/m³ CO₂e PPM VOC PPM PM1 μg/m³ PM2.5 μg/m³ PM4 μg/m³ PM10 μg/m³ TPS µm
Wednesday 12 August 2026
18:39 Trim Patrick St 3 37.9 29 69,808 0 0 0 13.01 91.28 26.2 5.43 11.78 12.95
18:38 Trim Market St 3 33.4 34 66,480 0 1.92 0.18 15.14 85.62 0 2.14 5.31 5.84
18:38 Trim Patrick St 3 38.1 29 69,801 0 0 0 12.57 86.72 27.1 3.71 10.17 11.19
18:37 Trim Market St 3 33.5 34 66,478 0 0.84 0.18 14.23 84.74 0 2.14 5.31 5.84
18:37 Trim Patrick St 3 38.2 29 69,816 0 8 0 14.02 88.29 26.7 2.86 10.19 11.21
18:36 Trim Market St 3 33.5 33 66,476 0 0.16 0.17 14.26 78.53 0 2.14 4.78 5.26
18:36 Trim Patrick St 3 38.4 28 69,834 0 9.33 0 13.15 116.79 27.87 3.71 10.21 11.23
18:35 Trim Market St 3 33.5 33 66,476 0 3.02 0.17 15.22 77.38 0 2.14 5.32 5.84
18:35 Trim Patrick St 3 38.5 28 69,856 0 3.59 0 13.43 83.63 26.51 2.86 11.05 12.15
18:34 Trim Market St 3 33.6 33 66,465 0 0.61 0.16 13.97 77.2 0 2.14 5.32 5.85
18:34 Trim Patrick St 3 38.7 28 69,856 0 4.46 0 13.36 114.18 27.56 4.57 11.03 12.14
18:33 Trim Market St 3 33.6 33 66,457 0 3.23 0.16 14.65 83.37 0 2.14 5.87 9.22
18:33 Trim Patrick St 3 38.8 28 69,848 0 0 0 13.42 111.75 26.25 3.71 11.05 12.16
18:32 Trim Market St 3 33.7 33 66,480 0 1.25 0.15 14.73 91.65 0 1.43 5.33 5.83
18:32 Trim Patrick St 3 38.9 28 69,869 0 0 0 13.38 126.11 26.96 4.57 11.05 12.15
18:31 Trim Market St 3 33.7 33 66,478 0 0 0.16 13.1 91.04 0 0.71 4.25 4.68
18:31 Trim Patrick St 3 39 28 69,867 0 0 0 13.31 83.64 26.2 4.57 11.07 12.18
18:30 Trim Market St 3 33.7 33 66,503 0 0 0.17 13.1 87.8 0 2.85 6.41 7.52
18:30 Trim Patrick St 3 39.1 28 69,867 0 0 0 13.37 88.29 26.84 4.57 11.08 12.18
18:29 Trim Market St 3 33.8 33 66,507 0 0 0.16 13.43 82.57 0 1.43 4.8 4.99